Glorious Hope — 3FKB3 — position and weather

sailwx.info

Track history (hours):
 
Tides and Currents Weather Stations Pressure Air Temp Water Temp Dewpoint Dewpoint Depression Visibility Wind Speed Wind Dir Waves Ship Positions

Glorious Hope

Last reported at 2018-Apr-01 22:39 UTC. Time now 2018-Apr-22 14:38 UTC.
Position N 28°58' W 120°28'.
Warning: this ship's position is 20 days out of date.

Length 190 m; draft 12.7 m.

Type: Cargo ship. MMSI: 355820000.

Date/timePositionNaut miles runAvg speedWind from/ knotsBaromVisibWave heightAir tempDewpointWater temp
2018-Apr-01 22:39N 28°58' W 120°28'214.4
2018-Apr-01 22:29N 28°59' W 120°30'714.2
2018-Apr-01 22:00N 29°03' W 120°36'714.3
2018-Apr-01 21:30N 29°08' W 120°43'3013.9
2018-Apr-01 19:20N 29°27' W 121°10'4614.1
2018-Apr-01 16:06N 29°55' W 121°51'214.8
2018-Apr-01 16:00N 29°56' W 121°52'2814.4
2018-Apr-01 14:05N 30°14' W 122°17'3614.6
2018-Apr-01 11:36N 30°37' W 122°49'114.6
2018-Apr-01 11:31N 30°37' W 122°51'2214.8
2018-Apr-01 10:01N 30°52' W 123°10'1714.5
2018-Apr-01 08:51N 31°03' W 123°25'714.6
2018-Apr-01 08:23N 31°08' W 123°31'613.9
2018-Apr-01 07:58N 31°12' W 123°35'714.3
2018-Apr-01 07:30N 31°18' W 123°39'714.5
2018-Apr-01 07:00N 31°24' W 123°43'914.3
2018-Apr-01 06:21N 31°32' W 123°48'1414.0
2018-Apr-01 05:23N 31°44' W 123°57'613.9
2018-Apr-01 04:59N 31°49' W 124°00'2814.1
2018-Apr-01 02:58N 32°13' W 124°17'714.1
2018-Apr-01 02:30N 32°19' W 124°20'714.2
2018-Apr-01 01:59N 32°26' W 124°25'714.2
2018-Apr-01 01:31N 32°32' W 124°29'814.3
2018-Apr-01 00:58N 32°38' W 124°33'1614.4
2018-Mar-31 23:51N 32°52' W 124°43'514.3
2018-Mar-31 23:30N 32°56' W 124°46'2614.4
2018-Mar-31 21:42N 33°18' W 125°02'314.2
2018-Mar-31 21:28N 33°21' W 125°04'4314.0
2018-Mar-31 18:24N 33°59' W 125°30'1413.8
2018-Mar-31 17:23N 34°11' W 125°39'713.8
2018-Mar-31 16:51N 34°17' W 125°43'513.7
2018-Mar-31 16:30N 34°21' W 125°46'713.9
2018-Mar-31 16:00N 34°27' W 125°50'714.0
2018-Mar-31 15:29N 34°34' W 125°55'714.0
2018-Mar-31 14:57N 34°40' W 125°59'714.0
2018-Mar-31 14:29N 34°46' W 126°03'714.2
2018-Mar-31 14:00N 34°51' W 126°08'714.4
2018-Mar-31 13:30N 34°58' W 126°12'714.3
2018-Mar-31 13:00N 35°04' W 126°16'714.0
2018-Mar-31 12:30N 35°10' W 126°21'714.1
2018-Mar-31 12:00N 35°16' W 126°25'1014.1
2018-Mar-31 11:16N 35°25' W 126°31'414.1
2018-Mar-31 11:01N 35°28' W 126°34'714.2
2018-Mar-31 10:31N 35°34' W 126°38'714.3
2018-Mar-31 10:00N 35°40' W 126°42'1214.4
2018-Mar-31 09:11N 35°50' W 126°50'714.6
2018-Mar-31 08:43N 35°56' W 126°54'814.6
2018-Mar-31 08:09N 36°04' W 126°59'214.3
2018-Mar-31 08:00N 36°06' W 127°00'814.2
2018-Mar-31 07:24N 36°13' W 127°06'614.1
2018-Mar-31 07:00N 36°18' W 127°09'713.9
2018-Mar-31 06:30N 36°24' W 127°13'713.9
2018-Mar-31 06:00N 36°30' W 127°18'713.9
2018-Mar-31 05:30N 36°36' W 127°22'813.9
2018-Mar-31 04:57N 36°42' W 127°27'614.2
2018-Mar-31 04:30N 36°48' W 127°31'714.2
2018-Mar-31 04:00N 36°54' W 127°36'714.3
2018-Mar-31 03:31N 37°00' W 127°40'714.5
2018-Mar-31 03:01N 37°07' W 127°43'814.5
2018-Mar-31 02:26N 37°15' W 127°46'614.2
2018-Mar-31 02:01N 37°21' W 127°48'714.2
2018-Mar-31 01:31N 37°27' W 127°51'814.2
2018-Mar-31 00:58N 37°35' W 127°54'714.1
2018-Mar-31 00:31N 37°41' W 127°57'3314.0
2018-Mar-30 22:08N 38°13' W 128°10'213.8
2018-Mar-30 22:00N 38°14' W 128°10'714.0
2018-Mar-30 21:30N 38°21' W 128°13'713.9
2018-Mar-30 21:00N 38°27' W 128°16'714.0
2018-Mar-30 20:30N 38°34' W 128°19'713.9
2018-Mar-30 19:59N 38°41' W 128°22'714.2
2018-Mar-30 19:30N 38°48' W 128°24'57712.5
2018-Mar-28 21:12N 48°10' W 125°31'512.3
2018-Mar-28 20:50N 48°13' W 125°25'512.6
2018-Mar-28 20:28N 48°16' W 125°20'612.8
2018-Mar-28 19:59N 48°20' W 125°13'612.3
2018-Mar-28 19:28N 48°25' W 125°07'611.9
2018-Mar-28 19:00N 48°30' W 125°02'511.3
2018-Mar-28 18:30N 48°30' W 124°54'612.3
2018-Mar-28 18:00N 48°30' W 124°44'612.1
2018-Mar-28 17:30N 48°28' W 124°36'612.5
2018-Mar-28 17:00N 48°26' W 124°27'713.3
2018-Mar-28 16:30N 48°23' W 124°18'713.3
2018-Mar-28 16:00N 48°20' W 124°09'713.9
2018-Mar-28 15:30N 48°18' W 123°59'713.0
2018-Mar-28 15:00N 48°16' W 123°50'712.7
2018-Mar-28 14:28N 48°15' W 123°39'613.6
2018-Mar-28 14:00N 48°16' W 123°30'612.7
2018-Mar-28 13:30N 48°22' W 123°25'5 9.7
2018-Mar-28 13:00N 48°23' W 123°19'611.0
2018-Mar-28 12:30N 48°27' W 123°12'611.8
2018-Mar-28 12:00N 48°33' W 123°13'611.3
2018-Mar-28 11:30N 48°38' W 123°15'510.1
2018-Mar-28 11:00N 48°43' W 123°13'612.3
2018-Mar-28 10:30N 48°46' W 123°04'5 9.3
2018-Mar-28 10:00N 48°50' W 123°03'712.8
2018-Mar-28 09:30N 48°55' W 123°10'612.4
2018-Mar-28 09:00N 48°59' W 123°17'712.5
2018-Mar-28 08:28N 49°04' W 123°23'613.1
2018-Mar-28 07:59N 49°11' W 123°22'613.1
2018-Mar-28 07:30N 49°16' W 123°19'5 9.3
2018-Mar-28 07:00N 49°19' W 123°13'3 6.1
2018-Mar-28 06:30N 49°19' W 123°09'1 1.6
2018-Mar-28 06:00N 49°19' W 123°08'0 0.7
2018-Mar-28 05:30N 49°19' W 123°07'0 0.0
2018-Mar-28 05:00N 49°19' W 123°07'0 0.0
2018-Mar-28 04:27N 49°19' W 123°07'0 0.0
2018-Mar-28 04:00N 49°19' W 123°07'0 0.0
2018-Mar-28 03:30N 49°19' W 123°07'0 0.0
2018-Mar-28 03:00N 49°19' W 123°07'0 0.0
2018-Mar-28 02:30N 49°19' W 123°07'0 0.0
2018-Mar-28 02:00N 49°19' W 123°07'0 0.0
2018-Mar-28 01:30N 49°19' W 123°07'0 0.0
2018-Mar-28 01:00N 49°19' W 123°07'0 0.0
2018-Mar-28 00:30N 49°19' W 123°07'0 0.0
2018-Mar-28 00:00N 49°19' W 123°07'0 0.0
2018-Mar-27 23:30N 49°19' W 123°07'0 0.0
2018-Mar-27 23:00N 49°19' W 123°07'0 0.0
2018-Mar-27 22:30N 49°19' W 123°07'0 0.0
2018-Mar-27 22:00N 49°19' W 123°07'0 0.0
2018-Mar-27 21:30N 49°19' W 123°07'0 0.0
2018-Mar-27 21:00N 49°19' W 123°07'0 0.0
2018-Mar-27 20:30N 49°19' W 123°07'0 0.0
2018-Mar-27 20:00N 49°19' W 123°07'0 0.0
2018-Mar-27 19:30N 49°19' W 123°07'0 0.0
2018-Mar-27 19:00N 49°19' W 123°07'0 0.0
2018-Mar-27 18:30N 49°19' W 123°07'0 0.0
2018-Mar-27 18:00N 49°19' W 123°07'0 0.0
2018-Mar-27 17:30N 49°19' W 123°07'0 0.0
2018-Mar-27 17:00N 49°19' W 123°07'0 0.0
2018-Mar-27 16:30N 49°19' W 123°07'0 0.0
2018-Mar-27 16:00N 49°19' W 123°07'0 0.0
2018-Mar-27 15:30N 49°19' W 123°07'0 0.0
2018-Mar-27 15:00N 49°19' W 123°07'0 0.0
2018-Mar-27 14:30N 49°19' W 123°07'0 0.0
2018-Mar-27 14:00N 49°19' W 123°07'0 0.0
2018-Mar-27 13:30N 49°19' W 123°07'0 0.0
2018-Mar-27 13:00N 49°19' W 123°07'0 0.0
2018-Mar-27 12:30N 49°19' W 123°07'0 0.0
2018-Mar-27 12:00N 49°19' W 123°07'0 0.0
2018-Mar-27 11:30N 49°19' W 123°07'0 0.0
2018-Mar-27 11:00N 49°19' W 123°07'0 0.0
2018-Mar-27 10:30N 49°19' W 123°07'0 0.0
2018-Mar-27 10:00N 49°19' W 123°07'0 0.0
2018-Mar-27 09:30N 49°19' W 123°07'0 0.0
2018-Mar-27 09:00N 49°19' W 123°07'0 0.0
2018-Mar-27 08:30N 49°19' W 123°07'0 0.0
2018-Mar-27 08:00N 49°19' W 123°07'0 0.0
2018-Mar-27 07:30N 49°19' W 123°07'0 0.0
2018-Mar-27 06:57N 49°19' W 123°07'0 0.0
2018-Mar-27 06:30N 49°19' W 123°07'0 0.0
2018-Mar-27 06:00N 49°19' W 123°07'0 0.0
2018-Mar-27 05:27N 49°19' W 123°07'0 0.0
2018-Mar-27 05:00N 49°19' W 123°07'0 0.0
2018-Mar-27 04:30N 49°19' W 123°07'0 0.0
2018-Mar-27 04:00N 49°19' W 123°07'0 0.0
2018-Mar-27 03:30N 49°19' W 123°07'0 0.0
2018-Mar-27 03:00N 49°19' W 123°07'0 0.0
2018-Mar-27 02:30N 49°19' W 123°07'0 0.0
2018-Mar-27 02:00N 49°19' W 123°07'0 0.0
2018-Mar-27 01:30N 49°19' W 123°07'0 0.0
2018-Mar-27 00:57N 49°19' W 123°07'0 0.0
2018-Mar-27 00:30N 49°19' W 123°07'0 0.0
2018-Mar-27 00:00N 49°19' W 123°07'0 0.0
2018-Mar-26 23:30N 49°19' W 123°07'0 0.0
2018-Mar-26 23:00N 49°19' W 123°07'0 0.0
2018-Mar-26 22:30N 49°19' W 123°07'0 0.0
2018-Mar-26 22:00N 49°19' W 123°07'0 0.0
2018-Mar-26 21:30N 49°19' W 123°07'0 0.0
2018-Mar-26 21:00N 49°19' W 123°07'0 0.0
2018-Mar-26 20:30N 49°19' W 123°07'0 0.0
2018-Mar-26 20:00N 49°19' W 123°07'0 0.0
2018-Mar-26 19:30N 49°19' W 123°07'0 0.0
2018-Mar-26 19:00N 49°19' W 123°07'0 0.0
2018-Mar-26 18:30N 49°19' W 123°07'0 0.0
2018-Mar-26 18:00N 49°19' W 123°07'0 0.0
2018-Mar-26 17:30N 49°19' W 123°07'0 0.0
2018-Mar-26 17:00N 49°19' W 123°07'0 0.0
2018-Mar-26 16:30N 49°19' W 123°07'0 0.0
2018-Mar-26 16:00N 49°19' W 123°07'0 0.0
2018-Mar-26 15:30N 49°19' W 123°07'0 0.6
2018-Mar-26 15:01N 49°19' W 123°08'3 5.3
2018-Mar-26 14:30N 49°18' W 123°12'1 1.4
2018-Mar-26 14:01N 49°17' W 123°12'0 0.1
2018-Mar-26 13:31N 49°17' W 123°12'0 0.0
2018-Mar-26 13:00N 49°17' W 123°12'0 0.0
2018-Mar-26 12:31N 49°17' W 123°12'0 0.1
2018-Mar-26 12:00N 49°17' W 123°12'0 0.6
2018-Mar-26 11:31N 49°18' W 123°12'3 5.2
2018-Mar-26 11:00N 49°19' W 123°08'4 8.1
2018-Mar-26 10:30N 49°18' W 123°03'3 6.4
2018-Mar-26 10:00N 49°18' W 122°58'3 5.5
2018-Mar-26 09:30N 49°18' W 122°53'1 1.9
2018-Mar-26 08:59N 49°17' W 122°52'0 0.0
2018-Mar-26 08:29N 49°17' W 122°52'0 0.0
2018-Mar-26 07:59N 49°17' W 122°52'0 0.0
2018-Mar-26 07:29N 49°17' W 122°52'0 0.0
2018-Mar-26 06:59N 49°17' W 122°52'0 0.0
2018-Mar-26 06:29N 49°17' W 122°52'0 0.0
2018-Mar-26 05:59N 49°17' W 122°52'0 0.0
2018-Mar-26 05:29N 49°17' W 122°52'0 0.0
2018-Mar-26 04:59N 49°17' W 122°52'0 0.0
2018-Mar-26 04:26N 49°17' W 122°52'0 0.0
2018-Mar-26 03:56N 49°17' W 122°52'0 0.0
2018-Mar-26 03:17N 49°17' W 122°52'0 0.0
2018-Mar-26 02:56N 49°17' W 122°52'0 0.0
2018-Mar-26 02:26N 49°17' W 122°52'0 0.0
2018-Mar-26 01:59N 49°17' W 122°52'0 0.0
2018-Mar-26 01:29N 49°17' W 122°52'0 0.0
2018-Mar-26 00:59N 49°17' W 122°52'0 0.0
2018-Mar-26 00:26N 49°17' W 122°52'0 0.0
2018-Mar-25 23:59N 49°17' W 122°52'0 0.0
2018-Mar-25 23:23N 49°17' W 122°52'0 0.0
2018-Mar-25 22:47N 49°17' W 122°52'0 0.0
2018-Mar-25 22:29N 49°17' W 122°52'0 0.0
2018-Mar-25 21:56N 49°17' W 122°52'0 0.0
2018-Mar-25 21:29N 49°17' W 122°52'0 0.0
2018-Mar-25 20:59N 49°17' W 122°52'0 0.0
2018-Mar-25 20:29N 49°17' W 122°52'0 0.0
2018-Mar-25 19:59N 49°17' W 122°52'0 0.0
2018-Mar-25 19:29N 49°17' W 122°52'0 0.0
2018-Mar-25 18:59N 49°17' W 122°52'0 0.0
2018-Mar-25 18:29N 49°17' W 122°52'0 0.0
2018-Mar-25 17:59N 49°17' W 122°52'0 0.0
2018-Mar-25 17:29N 49°17' W 122°52'0 0.0
2018-Mar-25 16:59N 49°17' W 122°52'0 0.0
2018-Mar-25 16:29N 49°17' W 122°52'0 0.0
2018-Mar-25 15:59N 49°17' W 122°52'0 0.0
2018-Mar-25 15:29N 49°17' W 122°52'0 0.0
2018-Mar-25 14:59N 49°17' W 122°52'0 0.0
2018-Mar-25 14:29N 49°17' W 122°52'0 0.0
2018-Mar-25 13:59N 49°17' W 122°52'0 0.0
2018-Mar-25 13:29N 49°17' W 122°52'0 0.0
2018-Mar-25 12:59N 49°17' W 122°52'0 0.0
2018-Mar-25 12:29N 49°17' W 122°52'0 0.0
2018-Mar-25 11:59N 49°17' W 122°52'0 0.0
2018-Mar-25 11:30N 49°17' W 122°52'0 0.0
2018-Mar-25 11:00N 49°17' W 122°52'1 1.0
2018-Mar-25 10:30N 49°18' W 122°53'2 3.4
2018-Mar-25 10:00N 49°18' W 122°55'2 4.5
2018-Mar-25 09:30N 49°18' W 122°59'3 5.5
2018-Mar-25 09:00N 49°18' W 123°03'1 1.5
2018-Mar-25 08:30N 49°18' W 123°04'1 3.0
2018-Mar-25 08:00N 49°18' W 123°06'3 6.5
2018-Mar-25 07:30N 49°18' W 123°11'1 1.7
2018-Mar-25 07:00N 49°17' W 123°12'0 0.1
2018-Mar-25 06:30N 49°17' W 123°12'0 0.0
2018-Mar-25 06:00N 49°17' W 123°12'0 0.1
2018-Mar-25 05:30N 49°17' W 123°12'0 0.0
2018-Mar-25 05:00N 49°17' W 123°12'0 0.1
2018-Mar-25 04:27N 49°17' W 123°12'0 0.1
2018-Mar-25 04:00N 49°17' W 123°12'0 0.1
2018-Mar-25 03:30N 49°17' W 123°12'0 0.1
2018-Mar-25 03:00N 49°17' W 123°12'0 0.0
2018-Mar-25 02:30N 49°17' W 123°12'0 0.1
2018-Mar-25 02:00N 49°17' W 123°12'0 0.0
2018-Mar-25 01:30N 49°17' W 123°12'0 0.1
2018-Mar-25 01:00N 49°17' W 123°12'0 0.1
2018-Mar-25 00:30N 49°17' W 123°12'0 0.0
2018-Mar-25 00:00N 49°17' W 123°12'0 0.1
2018-Mar-24 23:30N 49°17' W 123°12'0 0.1
2018-Mar-24 22:57N 49°17' W 123°12'0 0.0
2018-Mar-24 22:30N 49°17' W 123°12'0 0.0
2018-Mar-24 22:00N 49°17' W 123°12'0 0.2
2018-Mar-24 21:27N 49°17' W 123°12'0 0.1
2018-Mar-24 21:00N 49°17' W 123°12'0 0.0
2018-Mar-24 20:30N 49°17' W 123°12'0 0.2
2018-Mar-24 20:00N 49°17' W 123°12'0 0.0
2018-Mar-24 19:30N 49°17' W 123°12'0 0.0
2018-Mar-24 19:00N 49°17' W 123°12'0 0.1
2018-Mar-24 18:30N 49°17' W 123°12'0 0.2
2018-Mar-24 18:00N 49°17' W 123°12'0 0.1
2018-Mar-24 17:30N 49°17' W 123°12'0 0.1
2018-Mar-24 17:00N 49°17' W 123°12'0 0.1
2018-Mar-24 16:30N 49°17' W 123°12'0 0.1
2018-Mar-24 16:00N 49°17' W 123°12'0 0.0
2018-Mar-24 15:30N 49°17' W 123°12'0 0.0
2018-Mar-24 15:00N 49°17' W 123°12'0 0.1
2018-Mar-24 14:30N 49°17' W 123°12'0 0.1
2018-Mar-24 14:00N 49°17' W 123°12'0 0.2
2018-Mar-24 13:30N 49°17' W 123°11'0 0.2
2018-Mar-24 13:00N 49°17' W 123°12'0 0.2
2018-Mar-24 12:30N 49°17' W 123°12'0 0.1
2018-Mar-24 12:00N 49°17' W 123°12'0 0.1
2018-Mar-24 11:30N 49°17' W 123°12'0 0.1
2018-Mar-24 11:00N 49°17' W 123°12'0 0.0
2018-Mar-24 10:30N 49°17' W 123°12'0 0.1
2018-Mar-24 10:00N 49°17' W 123°12'0 0.0
2018-Mar-24 09:30N 49°17' W 123°12'0 0.1
2018-Mar-24 09:00N 49°17' W 123°12'0 0.0
2018-Mar-24 08:30N 49°17' W 123°12'0 0.0
2018-Mar-24 08:00N 49°17' W 123°12'0 0.0
2018-Mar-24 07:30N 49°17' W 123°12'0 0.0
2018-Mar-24 07:00N 49°17' W 123°12'0 0.0
2018-Mar-24 06:27N 49°17' W 123°12'0 0.0
2018-Mar-24 06:00N 49°17' W 123°12'0 0.0
2018-Mar-24 05:30N 49°17' W 123°12'0 0.1
2018-Mar-24 04:57N 49°17' W 123°12'0 0.2
2018-Mar-24 04:30N 49°17' W 123°12'0 0.1
2018-Mar-24 03:57N 49°17' W 123°12'0 0.0
2018-Mar-24 03:30N 49°17' W 123°12'0 0.1
2018-Mar-24 03:00N 49°17' W 123°12'0 0.1
2018-Mar-24 02:30N 49°17' W 123°12'0 0.1
2018-Mar-24 01:57N 49°17' W 123°12'0 0.3
2018-Mar-24 01:27N 49°17' W 123°12'0 0.1
2018-Mar-24 00:57N 49°17' W 123°12'0 0.1
2018-Mar-24 00:30N 49°17' W 123°12'0 0.1
2018-Mar-24 00:00N 49°17' W 123°12'0 0.2
2018-Mar-23 23:30N 49°17' W 123°12'0 0.0
2018-Mar-23 23:00N 49°17' W 123°12'0 0.1
2018-Mar-23 22:27N 49°17' W 123°12'0 0.0
2018-Mar-23 22:00N 49°17' W 123°12'0 0.1
2018-Mar-23 21:30N 49°17' W 123°12'0 0.1
2018-Mar-23 21:00N 49°17' W 123°12'0 0.1
2018-Mar-23 20:30N 49°17' W 123°12'0 0.0
2018-Mar-23 20:00N 49°17' W 123°12'0 0.0
2018-Mar-23 19:30N 49°17' W 123°12'0 0.1
2018-Mar-23 18:57N 49°17' W 123°12'0 0.1
2018-Mar-23 18:30N 49°17' W 123°12'0 0.0
2018-Mar-23 18:00N 49°17' W 123°12'0 0.0
2018-Mar-23 17:30N 49°17' W 123°12'0 0.0
2018-Mar-23 17:00N 49°17' W 123°12'0 0.0
2018-Mar-23 16:30N 49°17' W 123°12'0 0.1
2018-Mar-23 15:57N 49°17' W 123°12'0 0.1
2018-Mar-23 15:30N 49°17' W 123°12'0 0.0
2018-Mar-23 15:00N 49°17' W 123°12'0 0.0
2018-Mar-23 14:30N 49°17' W 123°12'0 0.0
2018-Mar-23 14:00N 49°17' W 123°12'0 0.0
2018-Mar-23 13:30N 49°17' W 123°12'0 0.2
2018-Mar-23 13:00N 49°17' W 123°12'1 2.7
2018-Mar-23 12:30N 49°18' W 123°14'3 6.3
2018-Mar-23 12:00N 49°16' W 123°18'714.6
2018-Mar-23 11:31N 49°09' W 123°20'815.4
2018-Mar-23 11:01N 49°02' W 123°17'815.6
2018-Mar-23 10:30N 48°56' W 123°09'714.9
2018-Mar-23 10:00N 48°51' W 123°02'612.1
2018-Mar-23 09:30N 48°45' W 123°05'714.3
2018-Mar-23 09:01N 48°42' W 123°15'714.4
2018-Mar-23 08:31N 48°35' W 123°13'815.3
2018-Mar-23 08:00N 48°27' W 123°10'612.6
2018-Mar-23 07:30N 48°23' W 123°17'510.5
2018-Mar-23 07:00N 48°20' W 123°24'1612.6
2018-Mar-23 05:43N 48°14' W 123°46'314.8
2018-Mar-23 05:29N 48°14' W 123°51'714.5
2018-Mar-23 04:59N 48°16' W 124°02'715.0
2018-Mar-23 04:30N 48°19' W 124°12'815.4
2018-Mar-23 04:00N 48°22' W 124°22'714.2
2018-Mar-23 03:30N 48°25' W 124°32'714.9
2018-Mar-23 03:00N 48°28' W 124°42'714.7
2018-Mar-23 02:30N 48°28' W 124°53'714.8
2018-Mar-23 02:00N 48°28' W 125°04'714.8
2018-Mar-23 01:30N 48°28' W 125°16'714.2
2018-Mar-23 01:00N 48°28' W 125°26'714.0
2018-Mar-23 00:30N 48°28' W 125°37'714.0
2018-Mar-23 00:00N 48°29' W 125°47'714.5
2018-Mar-22 23:30N 48°29' W 125°58'714.2
2018-Mar-22 23:00N 48°29' W 126°09'  
Track history (hours):
 
Tides and Currents Weather Stations Pressure Air Temp Water Temp Dewpoint Dewpoint Depression Visibility Wind Speed Wind Dir Waves Ship Positions

Glorious Hope

Last reported at 2018-Apr-01 22:39 UTC. Time now 2018-Apr-22 14:38 UTC.
Position N 28°58' W 120°28'.
Warning: this ship's position is 20 days out of date.

Length 190 m; draft 12.7 m.

Type: Cargo ship. MMSI: 355820000.

Date/timePositionNaut miles runAvg speedWind from/ knotsBaromVisibWave heightAir tempDewpointWater temp
2018-Apr-01 22:39N 28°58' W 120°28'214.4
2018-Apr-01 22:29N 28°59' W 120°30'714.2
2018-Apr-01 22:00N 29°03' W 120°36'714.3
2018-Apr-01 21:30N 29°08' W 120°43'3013.9
2018-Apr-01 19:20N 29°27' W 121°10'4614.1
2018-Apr-01 16:06N 29°55' W 121°51'214.8
2018-Apr-01 16:00N 29°56' W 121°52'2814.4
2018-Apr-01 14:05N 30°14' W 122°17'3614.6
2018-Apr-01 11:36N 30°37' W 122°49'114.6
2018-Apr-01 11:31N 30°37' W 122°51'2214.8
2018-Apr-01 10:01N 30°52' W 123°10'1714.5
2018-Apr-01 08:51N 31°03' W 123°25'714.6
2018-Apr-01 08:23N 31°08' W 123°31'613.9
2018-Apr-01 07:58N 31°12' W 123°35'714.3
2018-Apr-01 07:30N 31°18' W 123°39'714.5
2018-Apr-01 07:00N 31°24' W 123°43'914.3
2018-Apr-01 06:21N 31°32' W 123°48'1414.0
2018-Apr-01 05:23N 31°44' W 123°57'613.9
2018-Apr-01 04:59N 31°49' W 124°00'2814.1
2018-Apr-01 02:58N 32°13' W 124°17'714.1
2018-Apr-01 02:30N 32°19' W 124°20'714.2
2018-Apr-01 01:59N 32°26' W 124°25'714.2
2018-Apr-01 01:31N 32°32' W 124°29'814.3
2018-Apr-01 00:58N 32°38' W 124°33'1614.4
2018-Mar-31 23:51N 32°52' W 124°43'514.3
2018-Mar-31 23:30N 32°56' W 124°46'2614.4
2018-Mar-31 21:42N 33°18' W 125°02'314.2
2018-Mar-31 21:28N 33°21' W 125°04'4314.0
2018-Mar-31 18:24N 33°59' W 125°30'1413.8
2018-Mar-31 17:23N 34°11' W 125°39'713.8
2018-Mar-31 16:51N 34°17' W 125°43'513.7
2018-Mar-31 16:30N 34°21' W 125°46'713.9
2018-Mar-31 16:00N 34°27' W 125°50'714.0
2018-Mar-31 15:29N 34°34' W 125°55'714.0
2018-Mar-31 14:57N 34°40' W 125°59'714.0
2018-Mar-31 14:29N 34°46' W 126°03'714.2
2018-Mar-31 14:00N 34°51' W 126°08'714.4
2018-Mar-31 13:30N 34°58' W 126°12'714.3
2018-Mar-31 13:00N 35°04' W 126°16'714.0
2018-Mar-31 12:30N 35°10' W 126°21'714.1
2018-Mar-31 12:00N 35°16' W 126°25'1014.1
2018-Mar-31 11:16N 35°25' W 126°31'414.1
2018-Mar-31 11:01N 35°28' W 126°34'714.2
2018-Mar-31 10:31N 35°34' W 126°38'714.3
2018-Mar-31 10:00N 35°40' W 126°42'1214.4
2018-Mar-31 09:11N 35°50' W 126°50'714.6
2018-Mar-31 08:43N 35°56' W 126°54'814.6
2018-Mar-31 08:09N 36°04' W 126°59'214.3
2018-Mar-31 08:00N 36°06' W 127°00'814.2
2018-Mar-31 07:24N 36°13' W 127°06'614.1
2018-Mar-31 07:00N 36°18' W 127°09'713.9
2018-Mar-31 06:30N 36°24' W 127°13'713.9
2018-Mar-31 06:00N 36°30' W 127°18'713.9
2018-Mar-31 05:30N 36°36' W 127°22'813.9
2018-Mar-31 04:57N 36°42' W 127°27'614.2
2018-Mar-31 04:30N 36°48' W 127°31'714.2
2018-Mar-31 04:00N 36°54' W 127°36'714.3
2018-Mar-31 03:31N 37°00' W 127°40'714.5
2018-Mar-31 03:01N 37°07' W 127°43'814.5
2018-Mar-31 02:26N 37°15' W 127°46'614.2
2018-Mar-31 02:01N 37°21' W 127°48'714.2
2018-Mar-31 01:31N 37°27' W 127°51'814.2
2018-Mar-31 00:58N 37°35' W 127°54'714.1
2018-Mar-31 00:31N 37°41' W 127°57'3314.0
2018-Mar-30 22:08N 38°13' W 128°10'213.8
2018-Mar-30 22:00N 38°14' W 128°10'714.0
2018-Mar-30 21:30N 38°21' W 128°13'713.9
2018-Mar-30 21:00N 38°27' W 128°16'714.0
2018-Mar-30 20:30N 38°34' W 128°19'713.9
2018-Mar-30 19:59N 38°41' W 128°22'714.2
2018-Mar-30 19:30N 38°48' W 128°24'57712.5
2018-Mar-28 21:12N 48°10' W 125°31'512.3
2018-Mar-28 20:50N 48°13' W 125°25'512.6
2018-Mar-28 20:28N 48°16' W 125°20'612.8
2018-Mar-28 19:59N 48°20' W 125°13'612.3
2018-Mar-28 19:28N 48°25' W 125°07'611.9
2018-Mar-28 19:00N 48°30' W 125°02'511.3
2018-Mar-28 18:30N 48°30' W 124°54'612.3
2018-Mar-28 18:00N 48°30' W 124°44'612.1
2018-Mar-28 17:30N 48°28' W 124°36'612.5
2018-Mar-28 17:00N 48°26' W 124°27'713.3
2018-Mar-28 16:30N 48°23' W 124°18'713.3
2018-Mar-28 16:00N 48°20' W 124°09'713.9
2018-Mar-28 15:30N 48°18' W 123°59'713.0
2018-Mar-28 15:00N 48°16' W 123°50'712.7
2018-Mar-28 14:28N 48°15' W 123°39'613.6
2018-Mar-28 14:00N 48°16' W 123°30'612.7
2018-Mar-28 13:30N 48°22' W 123°25'5 9.7
2018-Mar-28 13:00N 48°23' W 123°19'611.0
2018-Mar-28 12:30N 48°27' W 123°12'611.8
2018-Mar-28 12:00N 48°33' W 123°13'611.3
2018-Mar-28 11:30N 48°38' W 123°15'510.1
2018-Mar-28 11:00N 48°43' W 123°13'612.3
2018-Mar-28 10:30N 48°46' W 123°04'5 9.3
2018-Mar-28 10:00N 48°50' W 123°03'712.8
2018-Mar-28 09:30N 48°55' W 123°10'612.4
2018-Mar-28 09:00N 48°59' W 123°17'712.5
2018-Mar-28 08:28N 49°04' W 123°23'613.1
2018-Mar-28 07:59N 49°11' W 123°22'613.1
2018-Mar-28 07:30N 49°16' W 123°19'5 9.3
2018-Mar-28 07:00N 49°19' W 123°13'3 6.1
2018-Mar-28 06:30N 49°19' W 123°09'1 1.6
2018-Mar-28 06:00N 49°19' W 123°08'0 0.7
2018-Mar-28 05:30N 49°19' W 123°07'0 0.0
2018-Mar-28 05:00N 49°19' W 123°07'0 0.0
2018-Mar-28 04:27N 49°19' W 123°07'0 0.0
2018-Mar-28 04:00N 49°19' W 123°07'0 0.0
2018-Mar-28 03:30N 49°19' W 123°07'0 0.0
2018-Mar-28 03:00N 49°19' W 123°07'0 0.0
2018-Mar-28 02:30N 49°19' W 123°07'0 0.0
2018-Mar-28 02:00N 49°19' W 123°07'0 0.0
2018-Mar-28 01:30N 49°19' W 123°07'0 0.0
2018-Mar-28 01:00N 49°19' W 123°07'0 0.0
2018-Mar-28 00:30N 49°19' W 123°07'0 0.0
2018-Mar-28 00:00N 49°19' W 123°07'0 0.0
2018-Mar-27 23:30N 49°19' W 123°07'0 0.0
2018-Mar-27 23:00N 49°19' W 123°07'0 0.0
2018-Mar-27 22:30N 49°19' W 123°07'0 0.0
2018-Mar-27 22:00N 49°19' W 123°07'0 0.0
2018-Mar-27 21:30N 49°19' W 123°07'0 0.0
2018-Mar-27 21:00N 49°19' W 123°07'0 0.0
2018-Mar-27 20:30N 49°19' W 123°07'0 0.0
2018-Mar-27 20:00N 49°19' W 123°07'0 0.0
2018-Mar-27 19:30N 49°19' W 123°07'0 0.0
2018-Mar-27 19:00N 49°19' W 123°07'0 0.0
2018-Mar-27 18:30N 49°19' W 123°07'0 0.0
2018-Mar-27 18:00N 49°19' W 123°07'0 0.0
2018-Mar-27 17:30N 49°19' W 123°07'0 0.0
2018-Mar-27 17:00N 49°19' W 123°07'0 0.0
2018-Mar-27 16:30N 49°19' W 123°07'0 0.0
2018-Mar-27 16:00N 49°19' W 123°07'0 0.0
2018-Mar-27 15:30N 49°19' W 123°07'0 0.0
2018-Mar-27 15:00N 49°19' W 123°07'0 0.0
2018-Mar-27 14:30N 49°19' W 123°07'0 0.0
2018-Mar-27 14:00N 49°19' W 123°07'0 0.0
2018-Mar-27 13:30N 49°19' W 123°07'0 0.0
2018-Mar-27 13:00N 49°19' W 123°07'0 0.0
2018-Mar-27 12:30N 49°19' W 123°07'0 0.0
2018-Mar-27 12:00N 49°19' W 123°07'0 0.0
2018-Mar-27 11:30N 49°19' W 123°07'0 0.0
2018-Mar-27 11:00N 49°19' W 123°07'0 0.0
2018-Mar-27 10:30N 49°19' W 123°07'0 0.0
2018-Mar-27 10:00N 49°19' W 123°07'0 0.0
2018-Mar-27 09:30N 49°19' W 123°07'0 0.0
2018-Mar-27 09:00N 49°19' W 123°07'0 0.0
2018-Mar-27 08:30N 49°19' W 123°07'0 0.0
2018-Mar-27 08:00N 49°19' W 123°07'0 0.0
2018-Mar-27 07:30N 49°19' W 123°07'0 0.0
2018-Mar-27 06:57N 49°19' W 123°07'0 0.0
2018-Mar-27 06:30N 49°19' W 123°07'0 0.0
2018-Mar-27 06:00N 49°19' W 123°07'0 0.0
2018-Mar-27 05:27N 49°19' W 123°07'0 0.0
2018-Mar-27 05:00N 49°19' W 123°07'0 0.0
2018-Mar-27 04:30N 49°19' W 123°07'0 0.0
2018-Mar-27 04:00N 49°19' W 123°07'0 0.0
2018-Mar-27 03:30N 49°19' W 123°07'0 0.0
2018-Mar-27 03:00N 49°19' W 123°07'0 0.0
2018-Mar-27 02:30N 49°19' W 123°07'0 0.0
2018-Mar-27 02:00N 49°19' W 123°07'0 0.0
2018-Mar-27 01:30N 49°19' W 123°07'0 0.0
2018-Mar-27 00:57N 49°19' W 123°07'0 0.0
2018-Mar-27 00:30N 49°19' W 123°07'0 0.0
2018-Mar-27 00:00N 49°19' W 123°07'0 0.0
2018-Mar-26 23:30N 49°19' W 123°07'0 0.0
2018-Mar-26 23:00N 49°19' W 123°07'0 0.0
2018-Mar-26 22:30N 49°19' W 123°07'0 0.0
2018-Mar-26 22:00N 49°19' W 123°07'0 0.0
2018-Mar-26 21:30N 49°19' W 123°07'0 0.0
2018-Mar-26 21:00N 49°19' W 123°07'0 0.0
2018-Mar-26 20:30N 49°19' W 123°07'0 0.0
2018-Mar-26 20:00N 49°19' W 123°07'0 0.0
2018-Mar-26 19:30N 49°19' W 123°07'0 0.0
2018-Mar-26 19:00N 49°19' W 123°07'0 0.0
2018-Mar-26 18:30N 49°19' W 123°07'0 0.0
2018-Mar-26 18:00N 49°19' W 123°07'0 0.0
2018-Mar-26 17:30N 49°19' W 123°07'0 0.0
2018-Mar-26 17:00N 49°19' W 123°07'0 0.0
2018-Mar-26 16:30N 49°19' W 123°07'0 0.0
2018-Mar-26 16:00N 49°19' W 123°07'0 0.0
2018-Mar-26 15:30N 49°19' W 123°07'0 0.6
2018-Mar-26 15:01N 49°19' W 123°08'3 5.3
2018-Mar-26 14:30N 49°18' W 123°12'1 1.4
2018-Mar-26 14:01N 49°17' W 123°12'0 0.1
2018-Mar-26 13:31N 49°17' W 123°12'0 0.0
2018-Mar-26 13:00N 49°17' W 123°12'0 0.0
2018-Mar-26 12:31N 49°17' W 123°12'0 0.1
2018-Mar-26 12:00N 49°17' W 123°12'0 0.6
2018-Mar-26 11:31N 49°18' W 123°12'3 5.2
2018-Mar-26 11:00N 49°19' W 123°08'4 8.1
2018-Mar-26 10:30N 49°18' W 123°03'3 6.4
2018-Mar-26 10:00N 49°18' W 122°58'3 5.5
2018-Mar-26 09:30N 49°18' W 122°53'1 1.9
2018-Mar-26 08:59N 49°17' W 122°52'0 0.0
2018-Mar-26 08:29N 49°17' W 122°52'0 0.0
2018-Mar-26 07:59N 49°17' W 122°52'0 0.0
2018-Mar-26 07:29N 49°17' W 122°52'0 0.0
2018-Mar-26 06:59N 49°17' W 122°52'0 0.0
2018-Mar-26 06:29N 49°17' W 122°52'0 0.0
2018-Mar-26 05:59N 49°17' W 122°52'0 0.0
2018-Mar-26 05:29N 49°17' W 122°52'0 0.0
2018-Mar-26 04:59N 49°17' W 122°52'0 0.0
2018-Mar-26 04:26N 49°17' W 122°52'0 0.0
2018-Mar-26 03:56N 49°17' W 122°52'0 0.0
2018-Mar-26 03:17N 49°17' W 122°52'0 0.0
2018-Mar-26 02:56N 49°17' W 122°52'0 0.0
2018-Mar-26 02:26N 49°17' W 122°52'0 0.0
2018-Mar-26 01:59N 49°17' W 122°52'0 0.0
2018-Mar-26 01:29N 49°17' W 122°52'0 0.0
2018-Mar-26 00:59N 49°17' W 122°52'0 0.0
2018-Mar-26 00:26N 49°17' W 122°52'0 0.0
2018-Mar-25 23:59N 49°17' W 122°52'0 0.0
2018-Mar-25 23:23N 49°17' W 122°52'0 0.0
2018-Mar-25 22:47N 49°17' W 122°52'0 0.0
2018-Mar-25 22:29N 49°17' W 122°52'0 0.0
2018-Mar-25 21:56N 49°17' W 122°52'0 0.0
2018-Mar-25 21:29N 49°17' W 122°52'0 0.0
2018-Mar-25 20:59N 49°17' W 122°52'0 0.0
2018-Mar-25 20:29N 49°17' W 122°52'0 0.0
2018-Mar-25 19:59N 49°17' W 122°52'0 0.0
2018-Mar-25 19:29N 49°17' W 122°52'0 0.0
2018-Mar-25 18:59N 49°17' W 122°52'0 0.0
2018-Mar-25 18:29N 49°17' W 122°52'0 0.0
2018-Mar-25 17:59N 49°17' W 122°52'0 0.0
2018-Mar-25 17:29N 49°17' W 122°52'0 0.0
2018-Mar-25 16:59N 49°17' W 122°52'0 0.0
2018-Mar-25 16:29N 49°17' W 122°52'0 0.0
2018-Mar-25 15:59N 49°17' W 122°52'0 0.0
2018-Mar-25 15:29N 49°17' W 122°52'0 0.0
2018-Mar-25 14:59N 49°17' W 122°52'0 0.0
2018-Mar-25 14:29N 49°17' W 122°52'0 0.0
2018-Mar-25 13:59N 49°17' W 122°52'0 0.0
2018-Mar-25 13:29N 49°17' W 122°52'0 0.0
2018-Mar-25 12:59N 49°17' W 122°52'0 0.0
2018-Mar-25 12:29N 49°17' W 122°52'0 0.0
2018-Mar-25 11:59N 49°17' W 122°52'0 0.0
2018-Mar-25 11:30N 49°17' W 122°52'0 0.0
2018-Mar-25 11:00N 49°17' W 122°52'1 1.0
2018-Mar-25 10:30N 49°18' W 122°53'2 3.4
2018-Mar-25 10:00N 49°18' W 122°55'2 4.5
2018-Mar-25 09:30N 49°18' W 122°59'3 5.5
2018-Mar-25 09:00N 49°18' W 123°03'1 1.5
2018-Mar-25 08:30N 49°18' W 123°04'1 3.0
2018-Mar-25 08:00N 49°18' W 123°06'3 6.5
2018-Mar-25 07:30N 49°18' W 123°11'1 1.7
2018-Mar-25 07:00N 49°17' W 123°12'0 0.1
2018-Mar-25 06:30N 49°17' W 123°12'0 0.0
2018-Mar-25 06:00N 49°17' W 123°12'0 0.1
2018-Mar-25 05:30N 49°17' W 123°12'0 0.0
2018-Mar-25 05:00N 49°17' W 123°12'0 0.1
2018-Mar-25 04:27N 49°17' W 123°12'0 0.1
2018-Mar-25 04:00N 49°17' W 123°12'0 0.1
2018-Mar-25 03:30N 49°17' W 123°12'0 0.1
2018-Mar-25 03:00N 49°17' W 123°12'0 0.0
2018-Mar-25 02:30N 49°17' W 123°12'0 0.1
2018-Mar-25 02:00N 49°17' W 123°12'0 0.0
2018-Mar-25 01:30N 49°17' W 123°12'0 0.1
2018-Mar-25 01:00N 49°17' W 123°12'0 0.1
2018-Mar-25 00:30N 49°17' W 123°12'0 0.0
2018-Mar-25 00:00N 49°17' W 123°12'0 0.1
2018-Mar-24 23:30N 49°17' W 123°12'0 0.1
2018-Mar-24 22:57N 49°17' W 123°12'0 0.0
2018-Mar-24 22:30N 49°17' W 123°12'0 0.0
2018-Mar-24 22:00N 49°17' W 123°12'0 0.2
2018-Mar-24 21:27N 49°17' W 123°12'0 0.1
2018-Mar-24 21:00N 49°17' W 123°12'0 0.0
2018-Mar-24 20:30N 49°17' W 123°12'0 0.2
2018-Mar-24 20:00N 49°17' W 123°12'0 0.0
2018-Mar-24 19:30N 49°17' W 123°12'0 0.0
2018-Mar-24 19:00N 49°17' W 123°12'0 0.1
2018-Mar-24 18:30N 49°17' W 123°12'0 0.2
2018-Mar-24 18:00N 49°17' W 123°12'0 0.1
2018-Mar-24 17:30N 49°17' W 123°12'0 0.1
2018-Mar-24 17:00N 49°17' W 123°12'0 0.1
2018-Mar-24 16:30N 49°17' W 123°12'0 0.1
2018-Mar-24 16:00N 49°17' W 123°12'0 0.0
2018-Mar-24 15:30N 49°17' W 123°12'0 0.0
2018-Mar-24 15:00N 49°17' W 123°12'0 0.1
2018-Mar-24 14:30N 49°17' W 123°12'0 0.1
2018-Mar-24 14:00N 49°17' W 123°12'0 0.2
2018-Mar-24 13:30N 49°17' W 123°11'0 0.2
2018-Mar-24 13:00N 49°17' W 123°12'0 0.2
2018-Mar-24 12:30N 49°17' W 123°12'0 0.1
2018-Mar-24 12:00N 49°17' W 123°12'0 0.1
2018-Mar-24 11:30N 49°17' W 123°12'0 0.1
2018-Mar-24 11:00N 49°17' W 123°12'0 0.0
2018-Mar-24 10:30N 49°17' W 123°12'0 0.1
2018-Mar-24 10:00N 49°17' W 123°12'0 0.0
2018-Mar-24 09:30N 49°17' W 123°12'0 0.1
2018-Mar-24 09:00N 49°17' W 123°12'0 0.0
2018-Mar-24 08:30N 49°17' W 123°12'0 0.0
2018-Mar-24 08:00N 49°17' W 123°12'0 0.0
2018-Mar-24 07:30N 49°17' W 123°12'0 0.0
2018-Mar-24 07:00N 49°17' W 123°12'0 0.0
2018-Mar-24 06:27N 49°17' W 123°12'0 0.0
2018-Mar-24 06:00N 49°17' W 123°12'0 0.0
2018-Mar-24 05:30N 49°17' W 123°12'0 0.1
2018-Mar-24 04:57N 49°17' W 123°12'0 0.2
2018-Mar-24 04:30N 49°17' W 123°12'0 0.1
2018-Mar-24 03:57N 49°17' W 123°12'0 0.0
2018-Mar-24 03:30N 49°17' W 123°12'0 0.1
2018-Mar-24 03:00N 49°17' W 123°12'0 0.1
2018-Mar-24 02:30N 49°17' W 123°12'0 0.1
2018-Mar-24 01:57N 49°17' W 123°12'0 0.3
2018-Mar-24 01:27N 49°17' W 123°12'0 0.1
2018-Mar-24 00:57N 49°17' W 123°12'0 0.1
2018-Mar-24 00:30N 49°17' W 123°12'0 0.1
2018-Mar-24 00:00N 49°17' W 123°12'0 0.2
2018-Mar-23 23:30N 49°17' W 123°12'0 0.0
2018-Mar-23 23:00N 49°17' W 123°12'0 0.1
2018-Mar-23 22:27N 49°17' W 123°12'0 0.0
2018-Mar-23 22:00N 49°17' W 123°12'0 0.1
2018-Mar-23 21:30N 49°17' W 123°12'0 0.1
2018-Mar-23 21:00N 49°17' W 123°12'0 0.1
2018-Mar-23 20:30N 49°17' W 123°12'0 0.0
2018-Mar-23 20:00N 49°17' W 123°12'0 0.0
2018-Mar-23 19:30N 49°17' W 123°12'0 0.1
2018-Mar-23 18:57N 49°17' W 123°12'0 0.1
2018-Mar-23 18:30N 49°17' W 123°12'0 0.0
2018-Mar-23 18:00N 49°17' W 123°12'0 0.0
2018-Mar-23 17:30N 49°17' W 123°12'0 0.0
2018-Mar-23 17:00N 49°17' W 123°12'0 0.0
2018-Mar-23 16:30N 49°17' W 123°12'0 0.1
2018-Mar-23 15:57N 49°17' W 123°12'0 0.1
2018-Mar-23 15:30N 49°17' W 123°12'0 0.0
2018-Mar-23 15:00N 49°17' W 123°12'0 0.0
2018-Mar-23 14:30N 49°17' W 123°12'0 0.0
2018-Mar-23 14:00N 49°17' W 123°12'0 0.0
2018-Mar-23 13:30N 49°17' W 123°12'0 0.2
2018-Mar-23 13:00N 49°17' W 123°12'1 2.7
2018-Mar-23 12:30N 49°18' W 123°14'3 6.3
2018-Mar-23 12:00N 49°16' W 123°18'714.6
2018-Mar-23 11:31N 49°09' W 123°20'815.4
2018-Mar-23 11:01N 49°02' W 123°17'815.6
2018-Mar-23 10:30N 48°56' W 123°09'714.9
2018-Mar-23 10:00N 48°51' W 123°02'612.1
2018-Mar-23 09:30N 48°45' W 123°05'714.3
2018-Mar-23 09:01N 48°42' W 123°15'714.4
2018-Mar-23 08:31N 48°35' W 123°13'815.3
2018-Mar-23 08:00N 48°27' W 123°10'612.6
2018-Mar-23 07:30N 48°23' W 123°17'510.5
2018-Mar-23 07:00N 48°20' W 123°24'1612.6
2018-Mar-23 05:43N 48°14' W 123°46'314.8
2018-Mar-23 05:29N 48°14' W 123°51'714.5
2018-Mar-23 04:59N 48°16' W 124°02'715.0
2018-Mar-23 04:30N 48°19' W 124°12'815.4
2018-Mar-23 04:00N 48°22' W 124°22'714.2
2018-Mar-23 03:30N 48°25' W 124°32'714.9
2018-Mar-23 03:00N 48°28' W 124°42'714.7
2018-Mar-23 02:30N 48°28' W 124°53'714.8
2018-Mar-23 02:00N 48°28' W 125°04'714.8
2018-Mar-23 01:30N 48°28' W 125°16'714.2
2018-Mar-23 01:00N 48°28' W 125°26'714.0
2018-Mar-23 00:30N 48°28' W 125°37'714.0
2018-Mar-23 00:00N 48°29' W 125°47'714.5
2018-Mar-22 23:30N 48°29' W 125°58'714.2
2018-Mar-22 23:00N 48°29' W 126°09'  

Dump ship's entire track history